createdAt,value
2017-12-21T00:00:03.724Z,90.70
2017-12-21T00:02:39.059Z,90.50
2017-12-21T00:05:13.210Z,90.30
2017-12-21T00:07:47.702Z,90.40
2017-12-21T00:10:22.306Z,90.40
2017-12-21T00:12:59.150Z,90.60
2017-12-21T00:15:33.612Z,90.90
2017-12-21T00:18:10.498Z,91.20
2017-12-21T00:20:44.145Z,91.20
2017-12-21T00:23:18.321Z,91.10
2017-12-21T00:25:52.383Z,91.10
2017-12-21T00:28:26.565Z,91.30
2017-12-21T00:31:00.786Z,91.70
2017-12-21T00:33:35.341Z,91.40
2017-12-21T00:36:10.008Z,91.50
2017-12-21T00:38:44.786Z,91.40
2017-12-21T00:41:19.172Z,91.20
2017-12-21T00:43:53.090Z,91.00
2017-12-21T00:46:27.026Z,90.90
2017-12-21T00:49:02.411Z,90.90
2017-12-21T00:51:36.526Z,91.10
2017-12-21T00:54:11.114Z,91.20
2017-12-21T00:56:45.420Z,91.10
2017-12-21T00:59:19.779Z,90.90
2017-12-21T01:01:53.941Z,90.80
2017-12-21T01:04:28.127Z,91.20
2017-12-21T01:07:02.312Z,91.10
2017-12-21T01:09:37.236Z,91.50
2017-12-21T01:12:11.730Z,91.40
2017-12-21T01:14:46.920Z,91.30
2017-12-21T01:17:22.161Z,91.60
2017-12-21T01:19:56.458Z,91.60
2017-12-21T01:22:30.601Z,91.20
2017-12-21T01:25:05.162Z,91.50
2017-12-21T01:27:40.132Z,91.70
2017-12-21T01:30:14.157Z,91.50
2017-12-21T01:32:49.011Z,91.40
2017-12-21T01:35:23.063Z,91.20
2017-12-21T01:37:57.148Z,91.40
2017-12-21T01:40:31.003Z,91.10
2017-12-21T01:43:05.526Z,91.30
2017-12-21T01:45:40.004Z,91.10
2017-12-21T01:48:14.364Z,90.90
2017-12-21T01:50:49.094Z,91.10
2017-12-21T01:53:22.968Z,91.10
2017-12-21T01:55:56.859Z,90.90
2017-12-21T01:58:30.847Z,91.20
2017-12-21T02:01:04.929Z,91.00
2017-12-21T02:03:39.556Z,90.90
2017-12-21T02:06:14.386Z,90.70
2017-12-21T02:08:49.089Z,90.90
2017-12-21T02:11:23.326Z,90.70
2017-12-21T02:13:57.176Z,90.60
2017-12-21T02:16:30.870Z,90.60
2017-12-21T02:19:05.667Z,90.70
2017-12-21T02:21:41.005Z,90.90
2017-12-21T02:24:15.256Z,90.90
2017-12-21T02:26:49.023Z,91.10
2017-12-21T02:29:24.715Z,90.60
2017-12-21T02:31:59.173Z,90.80
2017-12-21T02:34:33.456Z,90.80
2017-12-21T02:37:07.282Z,90.40
2017-12-21T02:39:41.196Z,90.30
2017-12-21T02:42:14.982Z,90.30
2017-12-21T02:44:49.334Z,90.20
2017-12-21T02:47:24.415Z,90.50
2017-12-21T02:49:58.996Z,90.20
2017-12-21T02:52:32.725Z,90.50
2017-12-21T02:55:07.463Z,90.50
2017-12-21T02:57:41.482Z,90.50
2017-12-21T03:00:15.563Z,90.50
2017-12-21T03:02:49.296Z,91.20
2017-12-21T03:05:23.327Z,90.80
2017-12-21T03:07:57.068Z,91.00
2017-12-21T03:10:31.905Z,91.40
2017-12-21T03:13:05.986Z,91.10
2017-12-21T03:15:40.160Z,91.60
2017-12-21T03:18:14.162Z,91.20
2017-12-21T03:20:48.669Z,91.30
2017-12-21T03:23:22.734Z,91.10
2017-12-21T03:25:57.345Z,91.20
2017-12-21T03:28:32.967Z,91.60
2017-12-21T03:31:08.498Z,91.00
2017-12-21T03:33:42.843Z,91.10
2017-12-21T03:36:17.408Z,90.90
2017-12-21T03:38:51.731Z,90.90
2017-12-21T03:41:27.742Z,91.10
2017-12-21T03:44:03.031Z,91.40
2017-12-21T03:46:38.018Z,91.50
2017-12-21T03:49:12.301Z,91.40
2017-12-21T03:51:46.829Z,91.50
2017-12-21T03:54:20.938Z,91.30
2017-12-21T03:56:54.971Z,91.40
2017-12-21T03:59:29.544Z,91.50
2017-12-21T04:02:04.110Z,91.30
2017-12-21T04:04:38.015Z,91.40
2017-12-21T04:07:12.117Z,91.40
2017-12-21T04:09:46.155Z,91.50
2017-12-21T04:12:20.692Z,91.80
2017-12-21T04:14:55.979Z,92.10
2017-12-21T04:17:30.168Z,91.80
2017-12-21T04:20:03.921Z,91.70
2017-12-21T04:22:37.756Z,92.00
2017-12-21T04:25:11.686Z,91.60
2017-12-21T04:27:46.056Z,91.70
2017-12-21T04:30:19.902Z,91.90
2017-12-21T04:32:54.681Z,92.00
2017-12-21T04:35:29.099Z,91.90
2017-12-21T04:38:03.555Z,92.10
2017-12-21T04:40:37.322Z,91.90
2017-12-21T04:43:12.677Z,92.00
2017-12-21T04:45:47.143Z,91.70
2017-12-21T04:48:21.356Z,91.70
2017-12-21T04:50:55.421Z,91.70
2017-12-21T04:53:30.230Z,92.10
2017-12-21T04:56:04.381Z,92.10
2017-12-21T04:58:39.069Z,92.20
2017-12-21T05:01:14.193Z,92.20
2017-12-21T05:03:49.116Z,92.40
2017-12-21T05:06:23.569Z,92.20
2017-12-21T05:08:57.420Z,92.20
2017-12-21T05:11:32.310Z,92.40
2017-12-21T05:14:06.175Z,92.20
2017-12-21T05:16:40.267Z,92.50
2017-12-21T05:19:15.126Z,92.40
2017-12-21T05:21:50.501Z,92.70
2017-12-21T05:24:25.332Z,92.30
2017-12-21T05:26:59.369Z,92.00
2017-12-21T05:29:33.182Z,92.30
2017-12-21T05:32:07.114Z,92.30
2017-12-21T05:34:41.006Z,92.20
2017-12-21T05:37:14.848Z,92.10
2017-12-21T05:39:49.707Z,92.20
2017-12-21T05:42:23.726Z,92.00
2017-12-21T05:44:58.336Z,91.90
2017-12-21T05:47:32.601Z,91.70
2017-12-21T05:50:06.811Z,91.70
2017-12-21T05:52:41.130Z,91.90
2017-12-21T05:55:15.647Z,91.70
2017-12-21T05:57:49.640Z,92.00
2017-12-21T06:00:27.739Z,92.30
2017-12-21T06:03:01.625Z,92.10
2017-12-21T06:05:36.471Z,92.10
2017-12-21T06:08:10.671Z,91.80
2017-12-21T06:10:44.539Z,91.90
2017-12-21T06:13:19.256Z,91.80
2017-12-21T06:15:53.182Z,91.50
2017-12-21T06:18:27.036Z,91.50
2017-12-21T06:21:00.941Z,91.50
2017-12-21T06:23:35.061Z,91.50
2017-12-21T06:26:09.100Z,91.50
2017-12-21T06:28:43.163Z,91.50
2017-12-21T06:31:17.785Z,91.90
2017-12-21T06:33:52.925Z,91.80
2017-12-21T06:36:27.125Z,91.80
2017-12-21T06:39:01.020Z,91.50
2017-12-21T06:41:34.925Z,91.80
2017-12-21T06:44:08.963Z,91.90
2017-12-21T06:46:42.909Z,92.20
2017-12-21T06:49:16.989Z,92.30
2017-12-21T06:51:51.065Z,92.30
2017-12-21T06:54:24.918Z,92.40
2017-12-21T06:56:58.824Z,92.30
2017-12-21T06:59:33.033Z,92.10
2017-12-21T07:02:07.159Z,92.30
2017-12-21T07:04:41.226Z,92.10
2017-12-21T07:07:16.089Z,92.40
2017-12-21T07:09:50.232Z,91.80
2017-12-21T07:12:24.174Z,92.10
2017-12-21T07:14:58.262Z,92.10
2017-12-21T07:17:32.175Z,92.00
2017-12-21T07:20:07.134Z,92.40
2017-12-21T07:22:42.489Z,92.70
2017-12-21T07:25:17.586Z,92.50
2017-12-21T07:27:51.666Z,92.20
2017-12-21T07:30:25.743Z,92.20
2017-12-21T07:32:59.788Z,92.10
2017-12-21T07:35:34.496Z,92.40
2017-12-21T07:38:08.799Z,92.40
2017-12-21T07:40:42.632Z,91.90
2017-12-21T07:43:16.820Z,92.10
2017-12-21T07:45:51.359Z,92.10
2017-12-21T07:48:26.284Z,91.80
2017-12-21T07:51:00.608Z,91.80
2017-12-21T07:53:35.233Z,91.90
2017-12-21T07:56:09.335Z,91.70
2017-12-21T07:58:43.224Z,92.00
2017-12-21T08:01:17.356Z,91.80
2017-12-21T08:03:51.386Z,91.70
2017-12-21T08:06:25.080Z,91.60
2017-12-21T08:08:59.128Z,91.90
2017-12-21T08:11:33.407Z,91.70
2017-12-21T08:14:07.846Z,91.90
2017-12-21T08:16:42.141Z,92.00
2017-12-21T08:19:16.460Z,91.90
2017-12-21T08:21:50.273Z,91.70
2017-12-21T08:24:24.174Z,91.60
2017-12-21T08:26:58.702Z,91.40
2017-12-21T08:29:33.116Z,91.40
2017-12-21T08:32:07.233Z,91.40
2017-12-21T08:34:41.138Z,91.20
2017-12-21T08:37:15.828Z,91.70
2017-12-21T08:39:50.900Z,91.50
2017-12-21T08:42:24.729Z,91.50
2017-12-21T08:44:58.723Z,91.80
2017-12-21T08:47:32.761Z,91.80
2017-12-21T08:50:07.348Z,91.70
2017-12-21T08:52:40.977Z,91.80
2017-12-21T08:55:14.792Z,91.90
2017-12-21T08:57:50.000Z,91.80
2017-12-21T09:00:25.444Z,91.60
2017-12-21T09:02:59.852Z,91.00
2017-12-21T09:05:34.164Z,91.10
2017-12-21T09:08:08.124Z,91.00
2017-12-21T09:10:41.893Z,90.80
2017-12-21T09:13:16.003Z,91.00
2017-12-21T09:15:50.158Z,90.90
2017-12-21T09:18:24.943Z,90.90
2017-12-21T09:20:59.168Z,90.40
2017-12-21T09:23:34.198Z,90.50
2017-12-21T09:26:08.203Z,90.10
2017-12-21T09:28:42.358Z,90.30
2017-12-21T09:31:17.133Z,90.40
2017-12-21T09:33:52.638Z,90.00
2017-12-21T09:36:26.529Z,90.00
2017-12-21T09:39:01.503Z,90.10
2017-12-21T09:41:35.867Z,89.50
2017-12-21T09:44:10.274Z,89.00
2017-12-21T09:46:45.465Z,89.30
2017-12-21T09:49:20.028Z,89.10
2017-12-21T09:51:55.068Z,89.60
2017-12-21T09:54:28.891Z,89.30
2017-12-21T09:57:03.220Z,89.10
2017-12-21T09:59:37.920Z,89.50
2017-12-21T10:02:12.124Z,88.80
2017-12-21T10:04:46.450Z,88.60
2017-12-21T10:07:20.221Z,88.70
2017-12-21T10:09:54.198Z,88.60
2017-12-21T10:12:29.299Z,89.30
2017-12-21T10:15:04.403Z,89.40
2017-12-21T10:17:39.014Z,88.90
2017-12-21T10:20:13.639Z,88.80
2017-12-21T10:22:47.599Z,89.00
2017-12-21T10:25:21.750Z,89.30
2017-12-21T10:27:56.331Z,90.10
2017-12-21T10:30:30.471Z,89.60
2017-12-21T10:33:04.456Z,89.50
2017-12-21T10:35:38.996Z,90.00
2017-12-21T10:38:13.295Z,90.00
2017-12-21T10:40:47.540Z,90.10
2017-12-21T10:43:22.571Z,90.00
2017-12-21T10:45:56.969Z,90.00
2017-12-21T10:48:31.082Z,90.10
2017-12-21T10:51:04.855Z,90.80
2017-12-21T10:53:40.506Z,91.10
2017-12-21T10:56:14.897Z,91.00
2017-12-21T10:58:48.759Z,90.70
2017-12-21T11:01:22.884Z,90.70
2017-12-21T11:03:57.382Z,90.90
2017-12-21T11:06:32.016Z,90.90
2017-12-21T11:09:05.830Z,90.60
2017-12-21T11:11:40.066Z,90.10
2017-12-21T11:14:14.057Z,90.30
2017-12-21T11:16:47.884Z,90.30
2017-12-21T11:19:21.763Z,90.20
2017-12-21T11:21:55.906Z,90.10
2017-12-21T11:24:29.897Z,89.40
2017-12-21T11:27:04.597Z,90.10
2017-12-21T11:29:38.846Z,89.90
2017-12-21T11:32:12.862Z,89.40
2017-12-21T11:34:46.751Z,89.40
2017-12-21T11:37:22.118Z,89.30
2017-12-21T11:39:56.406Z,88.80
2017-12-21T11:42:30.625Z,89.10
2017-12-21T11:45:05.351Z,89.50
2017-12-21T11:47:40.448Z,89.50
2017-12-21T11:50:15.118Z,89.80
2017-12-21T11:52:48.934Z,88.80
2017-12-21T11:55:23.876Z,89.10
2017-12-21T11:57:58.546Z,88.80
2017-12-21T12:00:32.735Z,88.40
2017-12-21T12:03:06.645Z,88.30
2017-12-21T12:05:40.610Z,88.20
2017-12-21T12:08:14.335Z,87.80
2017-12-21T12:10:49.351Z,87.60
2017-12-21T12:13:23.255Z,87.70
2017-12-21T12:15:57.270Z,87.90
2017-12-21T12:18:31.302Z,87.80
2017-12-21T12:21:05.182Z,87.80
2017-12-21T12:23:39.197Z,88.10
2017-12-21T12:26:17.274Z,89.30
2017-12-21T12:28:51.408Z,88.50
2017-12-21T12:31:26.346Z,89.00
2017-12-21T12:34:00.486Z,88.50
2017-12-21T12:36:35.186Z,88.50
2017-12-21T12:39:09.106Z,87.80
2017-12-21T12:41:42.933Z,87.60
2017-12-21T12:44:18.035Z,88.00
2017-12-21T12:46:52.641Z,88.50
2017-12-21T12:49:26.786Z,87.90
2017-12-21T12:52:00.658Z,87.70
2017-12-21T12:54:36.986Z,87.90
2017-12-21T12:57:10.829Z,87.40
2017-12-21T12:59:44.965Z,87.40
2017-12-21T13:02:19.162Z,87.30
2017-12-21T13:04:53.170Z,86.90
2017-12-21T13:07:28.128Z,87.20
2017-12-21T13:10:03.258Z,86.90
2017-12-21T13:12:37.473Z,86.40
2017-12-21T13:15:11.280Z,86.50
2017-12-21T13:17:44.870Z,86.30
2017-12-21T13:20:18.668Z,86.20
2017-12-21T13:22:52.381Z,86.40
2017-12-21T13:25:26.398Z,86.70
2017-12-21T13:28:00.269Z,86.50
2017-12-21T13:30:34.317Z,86.60
2017-12-21T13:33:08.321Z,85.90
2017-12-21T13:35:42.506Z,85.10
2017-12-21T13:38:17.735Z,85.70
2017-12-21T13:40:52.304Z,85.20
2017-12-21T13:43:26.060Z,85.20
2017-12-21T13:46:00.546Z,84.80
2017-12-21T13:48:34.640Z,84.70
2017-12-21T13:51:08.517Z,84.60
2017-12-21T13:53:42.449Z,84.10
2017-12-21T13:56:17.082Z,83.30
2017-12-21T13:58:52.429Z,83.90
2017-12-21T14:01:26.169Z,82.80
2017-12-21T14:04:00.075Z,83.40
2017-12-21T14:06:34.043Z,82.40
2017-12-21T14:09:08.049Z,82.00
2017-12-21T14:11:42.176Z,81.30
2017-12-21T14:14:16.389Z,81.50
2017-12-21T14:16:50.986Z,81.90
2017-12-21T14:19:25.844Z,81.60
2017-12-21T14:22:00.259Z,81.30
2017-12-21T14:24:36.288Z,81.80
2017-12-21T14:27:10.834Z,81.00
2017-12-21T14:29:44.652Z,81.00
2017-12-21T14:32:18.697Z,81.20
2017-12-21T14:34:52.665Z,81.60
2017-12-21T14:37:26.715Z,82.00
2017-12-21T14:40:00.812Z,82.70
2017-12-21T14:42:35.758Z,83.80
2017-12-21T14:45:09.853Z,83.10
2017-12-21T14:47:43.742Z,83.20
2017-12-21T14:50:18.344Z,83.40
2017-12-21T14:52:53.321Z,83.70
2017-12-21T14:55:27.411Z,83.10
2017-12-21T14:58:01.810Z,83.60
2017-12-21T15:00:36.873Z,83.70
2017-12-21T15:03:10.945Z,83.30
2017-12-21T15:05:46.151Z,83.40
2017-12-21T15:08:20.501Z,83.70
2017-12-21T15:10:54.853Z,83.10
2017-12-21T15:13:28.762Z,83.30
2017-12-21T15:16:02.617Z,83.50
2017-12-21T15:18:37.464Z,83.90
2017-12-21T15:21:12.582Z,83.80
2017-12-21T15:23:47.056Z,83.40
2017-12-21T15:26:21.797Z,84.10
2017-12-21T15:28:55.512Z,83.60
2017-12-21T15:31:29.450Z,83.80
2017-12-21T15:34:04.427Z,84.30
2017-12-21T15:36:39.248Z,84.10
2017-12-21T15:39:13.329Z,84.10
2017-12-21T15:41:47.189Z,83.70
2017-12-21T15:44:21.901Z,84.10
2017-12-21T15:46:56.169Z,83.60
2017-12-21T15:49:31.355Z,83.50
2017-12-21T15:52:05.346Z,83.30
2017-12-21T15:54:39.311Z,83.40
2017-12-21T15:57:13.055Z,83.60
2017-12-21T15:59:46.959Z,83.70
2017-12-21T16:02:20.966Z,83.10
2017-12-21T16:04:55.297Z,83.30
2017-12-21T16:07:29.135Z,83.40
2017-12-21T16:10:03.238Z,83.50
2017-12-21T16:12:37.492Z,83.30
2017-12-21T16:15:11.568Z,83.50
2017-12-21T16:17:46.615Z,82.90
2017-12-21T16:20:20.508Z,83.00
2017-12-21T16:22:55.557Z,83.20
2017-12-21T16:25:30.269Z,82.90
2017-12-21T16:28:05.615Z,83.60
2017-12-21T16:30:40.506Z,83.40
2017-12-21T16:33:15.068Z,83.40
2017-12-21T16:35:49.041Z,83.20
2017-12-21T16:38:23.623Z,83.40
2017-12-21T16:40:57.703Z,83.30
2017-12-21T16:43:31.797Z,82.80
2017-12-21T16:46:05.839Z,83.10
2017-12-21T16:48:39.941Z,84.20
2017-12-21T16:51:13.726Z,84.50
2017-12-21T16:53:47.774Z,83.30
2017-12-21T16:56:21.688Z,83.10
2017-12-21T16:58:55.601Z,83.10
2017-12-21T17:01:29.404Z,84.30
2017-12-21T17:04:04.127Z,83.80
2017-12-21T17:06:38.261Z,83.20
2017-12-21T17:09:12.152Z,83.20
2017-12-21T17:11:46.065Z,82.90
2017-12-21T17:14:20.350Z,82.80
2017-12-21T17:16:54.194Z,82.80
2017-12-21T17:19:28.928Z,83.30
2017-12-21T17:22:02.837Z,82.70
2017-12-21T17:24:37.009Z,82.60
2017-12-21T17:27:10.749Z,79.80
2017-12-21T17:29:44.453Z,83.40
2017-12-21T17:32:18.758Z,83.60
2017-12-21T17:34:53.454Z,85.10
2017-12-21T17:37:27.645Z,84.20
2017-12-21T17:40:02.005Z,84.20
2017-12-21T17:42:36.513Z,84.70
2017-12-21T17:45:10.867Z,84.00
2017-12-21T17:47:44.989Z,85.50
2017-12-21T17:50:19.318Z,84.10
2017-12-21T17:52:53.617Z,84.30
2017-12-21T17:55:27.674Z,84.20
2017-12-21T17:58:02.198Z,84.20
2017-12-21T18:00:36.275Z,84.40
2017-12-21T18:03:10.337Z,84.60
2017-12-21T18:05:45.963Z,85.20
2017-12-21T18:08:20.496Z,85.20
2017-12-21T18:10:54.302Z,86.10
2017-12-21T18:13:28.677Z,85.60
2017-12-21T18:16:02.523Z,85.50
2017-12-21T18:18:37.297Z,86.00
2017-12-21T18:21:11.302Z,85.30
2017-12-21T18:23:45.415Z,85.40
2017-12-21T18:26:19.298Z,85.30
2017-12-21T18:28:58.814Z,85.50
2017-12-21T18:31:33.874Z,86.10
2017-12-21T18:34:07.432Z,85.40
2017-12-21T18:36:42.418Z,85.80
2017-12-21T18:39:16.619Z,85.10
2017-12-21T18:41:51.242Z,85.60
2017-12-21T18:44:25.565Z,85.40
2017-12-21T18:46:59.574Z,85.30
2017-12-21T18:49:34.299Z,86.10
2017-12-21T18:52:08.345Z,86.20
2017-12-21T18:54:42.293Z,86.00
2017-12-21T18:57:17.029Z,86.00
2017-12-21T18:59:50.942Z,86.10
2017-12-21T19:02:25.198Z,86.30
2017-12-21T19:04:59.890Z,86.90
2017-12-21T19:07:34.900Z,86.30
2017-12-21T19:10:09.969Z,86.40
2017-12-21T19:12:44.265Z,86.70
2017-12-21T19:15:18.196Z,86.90
2017-12-21T19:17:53.872Z,87.40
2017-12-21T19:20:29.192Z,87.60
2017-12-21T19:23:03.830Z,87.80
2017-12-21T19:28:13.472Z,87.90
2017-12-21T19:30:48.110Z,88.30
2017-12-21T19:33:23.105Z,87.80
2017-12-21T19:35:57.124Z,87.70
2017-12-21T19:38:31.778Z,88.10
2017-12-21T19:41:06.068Z,87.60
2017-12-21T19:43:40.702Z,88.10
2017-12-21T19:46:14.874Z,87.70
2017-12-21T19:48:48.802Z,87.80
2017-12-21T19:51:24.244Z,88.30
2017-12-21T19:53:58.588Z,87.80
2017-12-21T19:56:32.495Z,87.80
2017-12-21T19:59:06.445Z,87.80
2017-12-21T20:01:41.336Z,87.50
2017-12-21T20:04:15.290Z,87.40
2017-12-21T20:06:49.765Z,87.50
2017-12-21T20:09:23.562Z,87.50
2017-12-21T20:11:58.321Z,88.20
2017-12-21T20:14:32.046Z,87.80
2017-12-21T20:17:06.752Z,88.20
2017-12-21T20:19:40.913Z,87.60
2017-12-21T20:22:15.805Z,88.00
2017-12-21T20:24:50.091Z,87.60
2017-12-21T20:27:24.738Z,87.90
2017-12-21T20:30:00.029Z,87.90
2017-12-21T20:32:33.821Z,87.60
2017-12-21T20:35:07.685Z,88.30
2017-12-21T20:37:41.576Z,89.60
2017-12-21T20:40:15.483Z,88.40
2017-12-21T20:42:49.585Z,88.20
2017-12-21T20:45:24.381Z,88.50
2017-12-21T20:47:58.577Z,88.00
2017-12-21T20:50:33.776Z,88.60
2017-12-21T20:53:08.108Z,88.10
2017-12-21T20:55:42.220Z,89.50
2017-12-21T20:58:16.054Z,87.60
2017-12-21T21:00:49.769Z,87.80
2017-12-21T21:03:24.448Z,88.20
2017-12-21T21:05:58.571Z,87.70
2017-12-21T21:08:32.536Z,87.60
2017-12-21T21:11:07.178Z,87.90
2017-12-21T21:13:41.484Z,87.40
2017-12-21T21:16:15.875Z,87.50
2017-12-21T21:18:50.458Z,87.20
2017-12-21T21:21:25.921Z,86.90
2017-12-21T21:24:00.289Z,87.40
2017-12-21T21:26:34.595Z,86.90
2017-12-21T21:29:08.418Z,86.90
2017-12-21T21:31:42.455Z,87.00
2017-12-21T21:34:16.404Z,87.10
2017-12-21T21:36:50.634Z,86.60
2017-12-21T21:39:24.604Z,86.60
2017-12-21T21:41:58.550Z,86.60
2017-12-21T21:44:32.615Z,86.60
2017-12-21T21:47:06.524Z,86.60
2017-12-21T21:49:40.538Z,86.90
2017-12-21T21:52:15.136Z,87.50
2017-12-21T21:54:50.305Z,87.50
2017-12-21T21:57:24.323Z,86.90
2017-12-21T21:59:59.013Z,87.40
2017-12-21T22:02:33.425Z,86.80
2017-12-21T22:05:07.344Z,86.90
2017-12-21T22:07:41.837Z,87.40
2017-12-21T22:10:16.720Z,87.50
2017-12-21T22:12:50.852Z,86.90
2017-12-21T22:15:25.550Z,87.50
2017-12-21T22:18:00.538Z,87.60
2017-12-21T22:20:35.021Z,87.20
2017-12-21T22:23:08.837Z,87.70
2017-12-21T22:25:43.526Z,88.00
2017-12-21T22:28:17.827Z,87.50
2017-12-21T22:30:52.440Z,87.50
2017-12-21T22:33:26.984Z,87.50
2017-12-21T22:36:02.106Z,88.10
2017-12-21T22:38:36.475Z,87.60
2017-12-21T22:41:10.445Z,87.70
2017-12-21T22:43:45.180Z,88.40
2017-12-21T22:46:19.590Z,87.90
2017-12-21T22:48:53.593Z,87.80
2017-12-21T22:51:27.730Z,87.70
2017-12-21T22:54:02.353Z,88.50
2017-12-21T22:56:37.154Z,88.30
2017-12-21T22:59:11.242Z,87.70
2017-12-21T23:01:45.179Z,87.80
2017-12-21T23:04:19.022Z,87.30
2017-12-21T23:06:52.812Z,87.50
2017-12-21T23:09:27.535Z,87.80
2017-12-21T23:12:02.358Z,87.80
2017-12-21T23:14:36.627Z,87.20
2017-12-21T23:17:10.580Z,87.40
2017-12-21T23:19:44.585Z,87.50
2017-12-21T23:22:18.673Z,87.70
2017-12-21T23:24:52.517Z,87.60
2017-12-21T23:27:27.340Z,87.10
2017-12-21T23:30:01.391Z,87.10
2017-12-21T23:32:35.326Z,87.10
2017-12-21T23:35:09.165Z,87.50
2017-12-21T23:37:44.210Z,87.60
2017-12-21T23:40:18.528Z,87.60
2017-12-21T23:42:52.846Z,86.80
2017-12-21T23:45:26.811Z,86.80
2017-12-21T23:48:00.795Z,86.80
2017-12-21T23:50:34.875Z,86.70
2017-12-21T23:53:09.020Z,86.80
2017-12-21T23:55:43.512Z,87.30
2017-12-21T23:58:17.665Z,86.80
